createdAt,value
2019-04-28T00:01:15.542Z,40.40
2019-04-28T00:03:45.429Z,39.45
2019-04-28T00:08:42.847Z,37.17
2019-04-28T00:11:12.492Z,34.05
2019-04-28T00:13:41.872Z,38.10
2019-04-28T00:16:16.312Z,36.93
2019-04-28T00:18:51.089Z,36.08
2019-04-28T00:21:34.563Z,44.35
2019-04-28T00:24:32.761Z,41.13
2019-04-28T00:27:04.020Z,33.63
2019-04-28T00:29:41.175Z,32.38
2019-04-28T00:32:08.484Z,34.50
2019-04-28T00:34:41.214Z,34.43
2019-04-28T00:37:24.514Z,32.98
2019-04-28T00:40:05.321Z,36.35
2019-04-28T00:42:36.306Z,37.67
2019-04-28T00:45:08.182Z,42.40
2019-04-28T00:47:43.797Z,39.65
2019-04-28T00:50:13.530Z,41.28
2019-04-28T00:52:42.398Z,36.60
2019-04-28T00:55:11.696Z,28.77
2019-04-28T00:57:40.981Z,34.65
2019-04-28T01:00:15.391Z,34.15
2019-04-28T01:02:47.257Z,28.40
2019-04-28T01:05:16.340Z,31.95
2019-04-28T01:07:45.466Z,33.63
2019-04-28T01:10:14.481Z,31.50
2019-04-28T01:12:42.974Z,25.12
2019-04-28T01:15:13.243Z,28.73
2019-04-28T01:17:43.322Z,24.07
2019-04-28T01:22:43.257Z,27.35
2019-04-28T01:25:12.226Z,29.12
2019-04-28T01:27:42.709Z,29.12
2019-04-28T01:30:15.451Z,29.20
2019-04-28T01:32:50.898Z,29.75
2019-04-28T01:35:21.000Z,26.85
2019-04-28T01:37:50.549Z,30.72
2019-04-28T01:40:20.546Z,28.40
2019-04-28T01:45:20.606Z,26.93
2019-04-28T01:47:50.384Z,29.27
2019-04-28T01:52:49.633Z,27.55
2019-04-28T01:57:49.745Z,28.60
2019-04-28T02:00:25.058Z,26.57
2019-04-28T02:02:50.539Z,27.58
2019-04-28T02:05:19.696Z,30.80
2019-04-28T02:07:50.469Z,28.43
2019-04-28T02:10:20.216Z,30.37
2019-04-28T02:12:50.369Z,30.32
2019-04-28T02:15:20.203Z,26.02
2019-04-28T02:20:20.259Z,31.25
2019-04-28T02:22:51.491Z,29.27
2019-04-28T02:25:21.410Z,30.45
2019-04-28T02:27:50.030Z,29.30
2019-04-28T02:30:20.284Z,28.27
2019-04-28T02:32:51.486Z,31.57
2019-04-28T02:37:46.572Z,28.87
2019-04-28T02:40:15.003Z,26.95
2019-04-28T02:42:43.511Z,28.83
2019-04-28T02:45:13.125Z,27.15
2019-04-28T02:47:42.414Z,33.28
2019-04-28T02:50:21.078Z,28.20
2019-04-28T02:52:53.712Z,24.72
2019-04-28T02:55:22.260Z,27.13
2019-04-28T02:57:51.660Z,30.88
2019-04-28T03:00:21.606Z,28.65
2019-04-28T03:05:21.677Z,28.87
2019-04-28T03:07:51.510Z,31.20
2019-04-28T03:12:51.634Z,27.32
2019-04-28T03:15:21.655Z,26.93
2019-04-28T03:17:52.956Z,28.87
2019-04-28T03:20:21.346Z,25.37
2019-04-28T03:22:51.204Z,28.52
2019-04-28T03:28:12.219Z,28.98
2019-04-28T03:31:03.313Z,27.10
2019-04-28T03:33:34.499Z,28.73
2019-04-28T03:36:03.721Z,31.25
2019-04-28T03:38:31.415Z,34.30
2019-04-28T03:41:01.073Z,30.97
2019-04-28T03:43:30.618Z,33.05
2019-04-28T03:46:03.555Z,32.25
2019-04-28T03:48:33.720Z,30.75
2019-04-28T03:51:01.882Z,31.73
2019-04-28T03:53:31.209Z,34.03
2019-04-28T03:56:01.566Z,35.15
2019-04-28T03:58:31.331Z,32.93
2019-04-28T04:01:02.957Z,41.77
2019-04-28T04:03:30.886Z,34.95
2019-04-28T04:06:00.734Z,29.50
2019-04-28T04:08:30.901Z,29.05
2019-04-28T04:11:02.006Z,32.20
2019-04-28T04:13:37.953Z,36.65
2019-04-28T04:16:11.955Z,35.88
2019-04-28T04:18:45.459Z,31.60
2019-04-28T04:21:35.164Z,33.20
2019-04-28T04:24:13.960Z,35.78
2019-04-28T04:26:51.847Z,34.60
2019-04-28T04:29:36.325Z,32.38
2019-04-28T04:39:02.674Z,36.23
2019-04-28T04:41:43.765Z,33.33
2019-04-28T04:44:37.890Z,34.45
2019-04-28T04:49:31.571Z,35.90
2019-04-28T04:52:00.543Z,41.15
2019-04-28T04:54:32.068Z,35.65
2019-04-28T04:57:11.353Z,37.60
2019-04-28T05:02:28.339Z,38.67
2019-04-28T05:04:45.611Z,37.08
2019-04-28T05:07:14.462Z,34.05
2019-04-28T05:09:43.717Z,40.23
2019-04-28T05:12:13.296Z,38.30
2019-04-28T05:14:44.763Z,33.13
2019-04-28T05:17:13.779Z,37.05
2019-04-28T05:19:47.544Z,37.45
2019-04-28T05:22:20.122Z,36.63
2019-04-28T05:24:54.291Z,31.52
2019-04-28T05:27:25.642Z,33.58
2019-04-28T05:29:56.822Z,34.38
2019-04-28T05:32:25.785Z,34.13
2019-04-28T05:34:54.960Z,36.63
2019-04-28T05:37:24.423Z,38.48
2019-04-28T05:42:36.259Z,35.50
2019-04-28T05:45:10.264Z,41.30
2019-04-28T05:47:40.656Z,34.75
2019-04-28T05:50:12.673Z,34.60
2019-04-28T05:53:00.549Z,39.98
2019-04-28T05:55:47.659Z,35.40
2019-04-28T05:58:19.765Z,45.33
2019-04-28T06:01:00.404Z,34.40
2019-04-28T06:03:30.817Z,33.30
2019-04-28T06:06:03.770Z,37.10
2019-04-28T06:08:46.614Z,37.50
2019-04-28T06:11:39.643Z,40.90
2019-04-28T06:14:10.000Z,37.55
2019-04-28T06:16:40.742Z,34.95
2019-04-28T06:19:10.255Z,34.67
2019-04-28T06:21:43.814Z,35.73
2019-04-28T06:27:11.223Z,29.92
2019-04-28T06:29:50.413Z,27.45
2019-04-28T06:32:19.792Z,29.90
2019-04-28T06:34:48.141Z,25.75
2019-04-28T06:37:16.861Z,26.10
2019-04-28T06:39:47.285Z,26.77
2019-04-28T06:42:15.619Z,25.65
2019-04-28T06:44:45.531Z,25.40
2019-04-28T06:47:16.919Z,24.43
2019-04-28T06:49:49.266Z,23.02
2019-04-28T06:52:18.073Z,22.62
2019-04-28T06:54:47.510Z,19.37
2019-04-28T06:57:16.841Z,25.30
2019-04-28T06:59:48.581Z,21.35
2019-04-28T07:02:16.949Z,23.38
2019-04-28T07:04:47.863Z,19.45
2019-04-28T07:07:17.379Z,24.57
2019-04-28T07:09:45.778Z,21.40
2019-04-28T07:12:14.229Z,20.08
2019-04-28T07:14:43.091Z,22.90
2019-04-28T07:17:12.229Z,21.60
2019-04-28T07:19:46.507Z,26.47
2019-04-28T07:22:23.252Z,26.87
2019-04-28T07:24:52.578Z,18.98
2019-04-28T07:27:21.212Z,24.85
2019-04-28T07:29:49.744Z,21.95
2019-04-28T07:32:18.458Z,20.82
2019-04-28T07:34:47.001Z,16.57
2019-04-28T07:37:16.354Z,20.52
2019-04-28T07:39:46.655Z,22.50
2019-04-28T07:42:19.188Z,21.50
2019-04-28T07:44:48.937Z,25.77
2019-04-28T07:47:17.603Z,22.05
2019-04-28T07:49:46.245Z,20.97
2019-04-28T07:52:17.482Z,22.75
2019-04-28T07:54:46.230Z,21.40
2019-04-28T07:57:17.820Z,19.35
2019-04-28T07:59:46.628Z,21.85
2019-04-28T08:02:18.176Z,19.85
2019-04-28T08:04:46.658Z,20.88
2019-04-28T08:07:15.104Z,23.57
2019-04-28T08:09:43.667Z,25.40
2019-04-28T08:12:12.385Z,25.00
2019-04-28T08:14:42.242Z,25.43
2019-04-28T08:17:15.549Z,21.33
2019-04-28T08:19:47.294Z,20.85
2019-04-28T08:22:17.129Z,24.45
2019-04-28T08:24:45.936Z,23.67
2019-04-28T08:27:14.906Z,23.83
2019-04-28T08:29:44.862Z,28.67
2019-04-28T08:35:03.134Z,24.20
2019-04-28T08:37:36.834Z,25.52
2019-04-28T08:40:10.638Z,24.35
2019-04-28T08:42:39.177Z,25.70
2019-04-28T08:45:10.546Z,23.75
2019-04-28T08:47:39.827Z,27.17
2019-04-28T08:50:15.949Z,29.07
2019-04-28T08:52:45.854Z,27.77
2019-04-28T08:55:15.331Z,30.12
2019-04-28T08:57:45.441Z,27.30
2019-04-28T09:00:19.002Z,36.08
2019-04-28T09:02:48.340Z,25.50
2019-04-28T09:05:21.726Z,29.05
2019-04-28T09:07:52.101Z,28.07
2019-04-28T09:10:20.532Z,29.30
2019-04-28T09:12:49.335Z,27.90
2019-04-28T09:15:18.319Z,26.90
2019-04-28T09:17:47.769Z,30.32
2019-04-28T09:20:17.296Z,31.40
2019-04-28T09:22:46.374Z,30.95
2019-04-28T09:25:14.963Z,31.17
2019-04-28T09:27:43.591Z,32.93
2019-04-28T09:30:13.827Z,35.28
2019-04-28T09:32:42.789Z,29.45
2019-04-28T09:35:13.446Z,35.70
2019-04-28T09:37:42.185Z,47.70
2019-04-28T09:40:12.413Z,37.70
2019-04-28T09:42:46.732Z,61.80
2019-04-28T09:45:20.537Z,67.17
2019-04-28T09:47:48.910Z,43.02
2019-04-28T09:50:17.428Z,34.53
2019-04-28T09:52:48.726Z,35.28
2019-04-28T09:55:16.835Z,31.75
2019-04-28T09:57:45.452Z,31.33
2019-04-28T10:00:14.688Z,34.98
2019-04-28T10:02:44.238Z,32.78
2019-04-28T10:05:12.835Z,31.93
2019-04-28T10:07:41.206Z,29.25
2019-04-28T10:10:09.921Z,30.40
2019-04-28T10:12:38.317Z,31.27
2019-04-28T10:15:08.119Z,27.62
2019-04-28T10:17:37.632Z,29.23
2019-04-28T10:20:06.495Z,25.57
2019-04-28T10:22:35.295Z,32.15
2019-04-28T10:25:07.930Z,29.20
2019-04-28T10:27:36.578Z,32.23
2019-04-28T10:30:09.313Z,28.75
2019-04-28T10:32:38.107Z,28.55
2019-04-28T10:35:07.045Z,28.32
2019-04-28T10:37:35.974Z,29.72
2019-04-28T10:40:12.681Z,28.32
2019-04-28T10:42:41.212Z,24.52
2019-04-28T10:45:11.372Z,25.43
2019-04-28T10:47:39.841Z,25.48
2019-04-28T10:50:08.346Z,26.75
2019-04-28T10:52:36.966Z,23.25
2019-04-28T10:55:06.915Z,29.12
2019-04-28T11:00:04.900Z,27.98
2019-04-28T11:02:34.170Z,27.27
2019-04-28T11:05:10.423Z,27.40
2019-04-28T11:07:38.935Z,27.60
2019-04-28T11:10:15.407Z,31.37
2019-04-28T11:12:46.007Z,35.43
2019-04-28T11:15:35.236Z,32.65
2019-04-28T11:18:05.711Z,33.57
2019-04-28T11:20:34.803Z,34.50
2019-04-28T11:23:03.737Z,32.57
2019-04-28T11:25:32.510Z,33.40
2019-04-28T11:28:01.693Z,34.27
2019-04-28T11:30:30.801Z,37.73
2019-04-28T11:33:00.839Z,35.57
2019-04-28T11:35:33.943Z,32.98
2019-04-28T11:38:02.483Z,36.20
2019-04-28T11:40:31.411Z,36.53
2019-04-28T11:43:00.423Z,35.98
2019-04-28T11:45:28.787Z,36.60
2019-04-28T11:47:57.431Z,35.38
2019-04-28T11:50:26.170Z,37.23
2019-04-28T11:52:54.949Z,36.95
2019-04-28T11:55:24.831Z,36.68
2019-04-28T11:57:53.356Z,39.40
2019-04-28T12:00:26.359Z,39.73
2019-04-28T12:02:55.367Z,40.67
2019-04-28T12:05:34.310Z,45.78
2019-04-28T12:07:56.691Z,45.15
2019-04-28T12:10:30.037Z,46.08
2019-04-28T12:13:00.818Z,41.58
2019-04-28T12:15:31.393Z,48.25
2019-04-28T12:18:04.662Z,45.65
2019-04-28T12:20:33.739Z,43.30
2019-04-28T12:23:02.666Z,46.25
2019-04-28T12:25:31.307Z,45.98
2019-04-28T12:27:59.810Z,43.20
2019-04-28T12:30:28.629Z,42.38
2019-04-28T12:32:57.477Z,44.55
2019-04-28T12:35:26.012Z,47.23
2019-04-28T12:37:55.135Z,45.70
2019-04-28T12:40:24.106Z,44.03
2019-04-28T12:42:53.275Z,43.95
2019-04-28T12:45:34.546Z,43.63
2019-04-28T12:47:52.497Z,29.80
2019-04-28T12:50:28.718Z,32.38
2019-04-28T12:52:58.003Z,34.60
2019-04-28T12:58:10.073Z,32.10
2019-04-28T13:00:40.293Z,29.07
2019-04-28T13:03:16.712Z,24.45
2019-04-28T13:06:01.598Z,24.87
2019-04-28T13:08:23.002Z,28.27
2019-04-28T13:10:52.554Z,25.50
2019-04-28T13:13:21.151Z,24.57
2019-04-28T13:15:49.523Z,23.12
2019-04-28T13:18:17.980Z,22.00
2019-04-28T13:20:46.283Z,19.98
2019-04-28T13:23:14.813Z,21.52
2019-04-28T13:25:45.093Z,20.32
2019-04-28T13:28:13.496Z,22.62
2019-04-28T13:30:41.921Z,19.02
2019-04-28T13:33:10.590Z,24.30
2019-04-28T13:35:39.452Z,19.60
2019-04-28T13:38:08.900Z,19.35
2019-04-28T13:40:41.591Z,20.02
2019-04-28T13:43:10.059Z,22.15
2019-04-28T13:45:38.511Z,26.42
2019-04-28T13:48:07.020Z,27.98
2019-04-28T13:50:37.272Z,22.27
2019-04-28T13:53:06.322Z,21.95
2019-04-28T13:55:36.718Z,26.17
2019-04-28T13:58:05.232Z,25.62
2019-04-28T14:00:41.217Z,24.98
2019-04-28T14:03:14.514Z,26.00
2019-04-28T14:05:44.988Z,27.55
2019-04-28T14:08:13.594Z,26.87
2019-04-28T14:10:42.197Z,28.30
2019-04-28T14:13:10.619Z,25.57
2019-04-28T14:15:38.929Z,25.72
2019-04-28T14:18:07.326Z,29.05
2019-04-28T14:20:35.686Z,30.02
2019-04-28T14:23:04.196Z,32.13
2019-04-28T14:25:32.587Z,29.52
2019-04-28T14:28:00.991Z,28.55
2019-04-28T14:30:30.145Z,26.62
2019-04-28T14:32:58.565Z,30.30
2019-04-28T14:35:26.912Z,27.50
2019-04-28T14:37:55.623Z,27.45
2019-04-28T14:40:24.100Z,30.75
2019-04-28T14:42:53.182Z,29.10
2019-04-28T14:45:21.503Z,25.85
2019-04-28T14:47:50.054Z,29.37
2019-04-28T14:50:27.639Z,25.65
2019-04-28T14:52:56.051Z,26.85
2019-04-28T14:55:24.418Z,24.23
2019-04-28T14:57:52.766Z,20.85
2019-04-28T15:00:28.803Z,22.13
2019-04-28T15:02:58.824Z,20.00
2019-04-28T15:05:31.434Z,18.40
2019-04-28T15:08:04.666Z,15.93
2019-04-28T15:10:40.781Z,14.53
2019-04-28T15:13:09.522Z,14.03
2019-04-28T15:15:40.389Z,11.75
2019-04-28T15:18:08.786Z,18.02
2019-04-28T15:20:37.439Z,19.35
2019-04-28T15:23:05.914Z,15.72
2019-04-28T15:25:34.395Z,14.87
2019-04-28T15:28:02.825Z,17.00
2019-04-28T15:30:32.054Z,15.63
2019-04-28T15:33:00.529Z,16.25
2019-04-28T15:35:29.967Z,19.60
2019-04-28T15:40:26.791Z,16.55
2019-04-28T15:42:55.216Z,19.50
2019-04-28T15:45:23.690Z,18.32
2019-04-28T15:47:52.294Z,18.95
2019-04-28T15:50:20.664Z,20.97
2019-04-28T15:52:49.155Z,25.48
2019-04-28T15:55:28.198Z,19.45
2019-04-28T15:57:56.503Z,20.60
2019-04-28T16:00:24.879Z,16.97
2019-04-28T16:02:54.411Z,18.45
2019-04-28T16:05:23.215Z,27.50
2019-04-28T16:07:51.854Z,21.42
2019-04-28T16:10:20.390Z,20.95
2019-04-28T16:12:49.201Z,22.67
2019-04-28T16:15:17.767Z,21.97
2019-04-28T16:17:46.526Z,18.82
2019-04-28T16:20:15.679Z,20.23
2019-04-28T16:22:44.903Z,17.57
2019-04-28T16:25:13.504Z,22.75
2019-04-28T16:27:43.875Z,23.98
2019-04-28T16:30:12.343Z,23.75
2019-04-28T16:32:41.798Z,22.48
2019-04-28T16:35:10.643Z,26.15
2019-04-28T16:37:39.845Z,27.52
2019-04-28T16:40:09.805Z,26.93
2019-04-28T16:47:36.899Z,21.75
2019-04-28T16:50:08.411Z,31.48
2019-04-28T16:52:37.296Z,26.10
2019-04-28T16:55:15.710Z,26.05
2019-04-28T16:57:58.487Z,24.70
2019-04-28T17:00:29.049Z,24.30
2019-04-28T17:02:57.749Z,25.90
2019-04-28T17:05:26.488Z,25.50
2019-04-28T17:07:55.051Z,31.40
2019-04-28T17:10:24.110Z,40.92
2019-04-28T17:12:52.912Z,55.23
2019-04-28T17:15:21.369Z,72.50
2019-04-28T17:17:50.388Z,52.80
2019-04-28T17:20:18.730Z,52.35
2019-04-28T17:22:50.089Z,34.53
2019-04-28T17:25:17.814Z,29.35
2019-04-28T17:27:46.354Z,30.20
2019-04-28T17:30:15.337Z,26.05
2019-04-28T17:32:44.497Z,28.47
2019-04-28T17:35:13.487Z,27.13
2019-04-28T17:37:43.842Z,27.43
2019-04-28T17:40:13.316Z,25.50
2019-04-28T17:42:42.021Z,27.98
2019-04-28T17:45:10.856Z,28.70
2019-04-28T17:47:39.502Z,27.40
2019-04-28T17:50:09.001Z,35.55
2019-04-28T17:52:37.578Z,26.27
2019-04-28T17:55:06.276Z,31.33
2019-04-28T17:57:34.928Z,30.85
2019-04-28T18:00:06.623Z,36.25
2019-04-28T18:02:45.647Z,32.23
2019-04-28T18:05:15.683Z,30.27
2019-04-28T18:10:12.768Z,32.60
2019-04-28T18:12:41.550Z,30.80
2019-04-28T18:15:11.607Z,31.00
2019-04-28T18:17:44.106Z,31.85
2019-04-28T18:20:12.606Z,34.63
2019-04-28T18:22:40.876Z,35.58
2019-04-28T18:25:13.320Z,38.83
2019-04-28T18:27:41.783Z,37.33
2019-04-28T18:30:11.941Z,33.38
2019-04-28T18:32:42.279Z,34.35
2019-04-28T18:35:15.219Z,37.73
2019-04-28T18:38:03.226Z,36.03
2019-04-28T18:40:42.379Z,34.08
2019-04-28T18:43:12.588Z,37.48
2019-04-28T18:45:41.300Z,35.95
2019-04-28T18:48:09.854Z,34.38
2019-04-28T18:50:39.093Z,44.00
2019-04-28T18:53:07.567Z,43.48
2019-04-28T18:55:41.767Z,35.52
2019-04-28T18:58:10.331Z,44.13
2019-04-28T19:00:42.460Z,40.12
2019-04-28T19:03:13.353Z,42.43
2019-04-28T19:05:43.474Z,43.25
2019-04-28T19:08:14.131Z,38.60
2019-04-28T19:10:56.319Z,38.42
2019-04-28T19:13:27.176Z,42.40
2019-04-28T19:16:16.031Z,38.53
2019-04-28T19:18:52.354Z,43.80
2019-04-28T19:21:20.999Z,40.65
2019-04-28T19:23:49.838Z,36.33
2019-04-28T19:26:22.320Z,39.00
2019-04-28T19:28:50.990Z,41.53
2019-04-28T19:31:19.970Z,35.48
2019-04-28T19:33:48.935Z,36.93
2019-04-28T19:36:17.337Z,41.50
2019-04-28T19:38:46.967Z,36.95
2019-04-28T19:41:15.378Z,38.60
2019-04-28T19:43:44.822Z,42.30
2019-04-28T19:46:15.559Z,43.75
2019-04-28T19:48:44.608Z,41.98
2019-04-28T19:51:16.596Z,34.47
2019-04-28T19:53:45.918Z,41.80
2019-04-28T19:56:18.655Z,40.73
2019-04-28T19:58:55.217Z,39.75
2019-04-28T20:01:25.309Z,39.30
2019-04-28T20:03:54.264Z,40.60
2019-04-28T20:06:22.868Z,37.48
2019-04-28T20:08:55.971Z,37.98
2019-04-28T20:11:24.872Z,43.78
2019-04-28T20:13:54.923Z,42.78
2019-04-28T20:19:00.197Z,41.10
2019-04-28T20:21:28.924Z,39.05
2019-04-28T20:23:57.478Z,39.18
2019-04-28T20:26:26.887Z,41.13
2019-04-28T20:28:55.597Z,40.95
2019-04-28T20:31:25.942Z,44.95
2019-04-28T20:33:54.683Z,44.15
2019-04-28T20:36:24.865Z,41.30
2019-04-28T20:38:55.112Z,44.53
2019-04-28T20:41:26.691Z,41.70
2019-04-28T20:43:57.618Z,41.68
2019-04-28T20:46:26.976Z,40.03
2019-04-28T20:48:55.776Z,44.75
2019-04-28T20:51:24.996Z,36.98
2019-04-28T20:53:55.147Z,45.63
2019-04-28T20:56:24.253Z,42.62
2019-04-28T20:58:55.871Z,42.80
2019-04-28T21:01:25.013Z,47.05
2019-04-28T21:03:54.727Z,41.53
2019-04-28T21:06:23.565Z,39.95
2019-04-28T21:08:54.769Z,39.70
2019-04-28T21:11:24.213Z,42.62
2019-04-28T21:13:55.268Z,47.30
2019-04-28T21:16:23.603Z,34.98
2019-04-28T21:18:52.007Z,36.45
2019-04-28T21:21:20.527Z,36.25
2019-04-28T21:23:56.472Z,40.17
2019-04-28T21:26:29.928Z,39.95
2019-04-28T21:29:03.398Z,42.98
2019-04-28T21:31:36.715Z,36.73
2019-04-28T21:34:16.670Z,41.02
2019-04-28T21:36:43.821Z,41.75
2019-04-28T21:39:13.899Z,41.48
2019-04-28T21:41:42.596Z,36.17
2019-04-28T21:44:22.167Z,37.35
2019-04-28T21:46:55.577Z,32.98
2019-04-28T21:49:25.895Z,36.93
2019-04-28T21:51:54.553Z,36.33
2019-04-28T21:54:25.295Z,45.73
2019-04-28T21:56:56.307Z,45.48
2019-04-28T21:59:25.115Z,43.80
2019-04-28T22:01:53.636Z,38.75
2019-04-28T22:04:23.858Z,39.05
2019-04-28T22:06:52.669Z,44.23
2019-04-28T22:09:22.171Z,36.63
2019-04-28T22:11:50.687Z,38.73
2019-04-28T22:14:19.358Z,41.28
2019-04-28T22:16:50.677Z,42.60
2019-04-28T22:19:22.623Z,40.15
2019-04-28T22:21:51.406Z,38.95
2019-04-28T22:24:34.554Z,34.88
2019-04-28T22:27:02.975Z,36.83
2019-04-28T22:29:31.897Z,34.92
2019-04-28T22:32:00.736Z,38.20
2019-04-28T22:34:29.989Z,36.55
2019-04-28T22:36:58.580Z,31.68
2019-04-28T22:39:34.818Z,35.55
2019-04-28T22:42:04.615Z,32.63
2019-04-28T22:44:35.261Z,30.92
2019-04-28T22:47:03.718Z,31.68
2019-04-28T22:49:35.696Z,30.80
2019-04-28T22:52:07.309Z,27.35
2019-04-28T22:54:40.745Z,29.67
2019-04-28T22:57:11.099Z,33.78
2019-04-28T22:59:41.364Z,35.23
2019-04-28T23:02:11.602Z,29.30
2019-04-28T23:04:50.848Z,38.53
2019-04-28T23:07:55.523Z,23.80
2019-04-28T23:10:24.185Z,27.65
2019-04-28T23:12:52.946Z,26.75
2019-04-28T23:15:21.377Z,25.90
2019-04-28T23:17:50.398Z,25.15
2019-04-28T23:20:18.880Z,29.37
2019-04-28T23:22:49.554Z,29.57
2019-04-28T23:25:18.449Z,20.65
2019-04-28T23:27:46.919Z,24.82
2019-04-28T23:30:33.814Z,23.10
2019-04-28T23:33:04.506Z,20.23
2019-04-28T23:35:33.175Z,27.00
2019-04-28T23:38:01.449Z,21.25
2019-04-28T23:40:29.913Z,22.30
2019-04-28T23:43:00.134Z,23.52
2019-04-28T23:45:28.643Z,18.85
2019-04-28T23:47:56.981Z,22.77
2019-04-28T23:50:38.970Z,23.77
2019-04-28T23:53:11.907Z,24.50
2019-04-28T23:55:40.703Z,23.15
2019-04-28T23:58:09.042Z,23.80
